createdAt,value
2018-10-20T00:00:11.955Z,1010.89
2018-10-20T00:01:11.965Z,1010.92
2018-10-20T00:02:11.931Z,1010.95
2018-10-20T00:03:11.920Z,1010.93
2018-10-20T00:04:11.911Z,1010.92
2018-10-20T00:05:11.969Z,1010.94
2018-10-20T00:06:11.889Z,1010.94
2018-10-20T00:07:11.956Z,1010.94
2018-10-20T00:08:11.870Z,1010.93
2018-10-20T00:09:11.861Z,1010.92
2018-10-20T00:10:11.855Z,1010.91
2018-10-20T00:11:11.886Z,1010.91
2018-10-20T00:12:11.831Z,1010.92
2018-10-20T00:13:11.861Z,1010.94
2018-10-20T00:14:12.060Z,1010.95
2018-10-20T00:15:11.798Z,1010.98
2018-10-20T00:16:11.790Z,1010.94
2018-10-20T00:17:12.025Z,1010.92
2018-10-20T00:18:11.769Z,1010.93
2018-10-20T00:19:11.785Z,1010.90
2018-10-20T00:20:11.749Z,1010.92
2018-10-20T00:21:11.741Z,1010.89
2018-10-20T00:22:11.729Z,1010.90
2018-10-20T00:23:11.942Z,1010.86
2018-10-20T00:24:11.710Z,1010.83
2018-10-20T00:25:11.762Z,1010.82
2018-10-20T00:26:11.687Z,1010.82
2018-10-20T00:27:11.677Z,1010.82
2018-10-20T00:28:11.666Z,1010.85
2018-10-20T00:29:11.656Z,1010.88
2018-10-20T00:30:11.646Z,1010.88
2018-10-20T00:31:11.677Z,1010.87
2018-10-20T00:32:11.626Z,1010.86
2018-10-20T00:33:11.620Z,1010.77
2018-10-20T00:34:11.640Z,1010.76
2018-10-20T00:35:11.595Z,1010.79
2018-10-20T00:36:11.584Z,1010.80
2018-10-20T00:37:11.670Z,1010.81
2018-10-20T00:38:11.563Z,1010.81
2018-10-20T00:39:11.652Z,1010.77
2018-10-20T00:40:11.567Z,1010.74
2018-10-20T00:41:11.535Z,1010.74
2018-10-20T00:42:11.522Z,1010.73
2018-10-20T00:43:11.611Z,1010.74
2018-10-20T00:44:11.752Z,1010.79
2018-10-20T00:45:11.490Z,1010.79
2018-10-20T00:46:11.635Z,1010.79
2018-10-20T00:47:11.469Z,1010.81
2018-10-20T00:48:11.462Z,1010.82
2018-10-20T00:49:11.514Z,1010.87
2018-10-20T00:50:11.438Z,1010.87
2018-10-20T00:51:11.427Z,1010.93
2018-10-20T00:52:11.494Z,1010.94
2018-10-20T00:53:11.406Z,1010.95
2018-10-20T00:54:11.395Z,1010.94
2018-10-20T00:55:11.447Z,1010.91
2018-10-20T00:56:11.375Z,1010.89
2018-10-20T00:57:11.364Z,1010.87
2018-10-20T00:58:11.414Z,1010.86
2018-10-20T00:59:11.342Z,1010.85
2018-10-20T01:00:11.333Z,1010.91
2018-10-20T01:01:11.405Z,1010.97
2018-10-20T01:02:11.311Z,1011.01
2018-10-20T01:03:11.301Z,1011.08
2018-10-20T01:04:11.353Z,1011.08
2018-10-20T01:05:11.279Z,1011.08
2018-10-20T01:06:11.269Z,1011.08
2018-10-20T01:07:11.349Z,1011.06
2018-10-20T01:08:11.248Z,1011.07
2018-10-20T01:09:11.240Z,1011.13
2018-10-20T01:10:11.250Z,1011.15
2018-10-20T01:11:11.216Z,1011.19
2018-10-20T01:12:11.209Z,1011.22
2018-10-20T01:13:11.284Z,1011.20
2018-10-20T01:14:11.435Z,1011.23
2018-10-20T01:15:11.175Z,1011.25
2018-10-20T01:16:11.215Z,1011.31
2018-10-20T01:17:11.152Z,1011.31
2018-10-20T01:18:11.143Z,1011.28
2018-10-20T01:19:11.225Z,1011.32
2018-10-20T01:20:11.122Z,1011.36
2018-10-20T01:21:11.113Z,1011.31
2018-10-20T01:22:11.187Z,1011.29
2018-10-20T01:23:11.090Z,1011.30
2018-10-20T01:24:11.081Z,1011.32
2018-10-20T01:25:11.206Z,1011.37
2018-10-20T01:26:11.059Z,1011.38
2018-10-20T01:27:11.048Z,1011.39
2018-10-20T01:28:11.071Z,1011.43
2018-10-20T01:29:11.027Z,1011.40
2018-10-20T01:30:11.016Z,1011.41
2018-10-20T01:31:11.052Z,1011.48
2018-10-20T01:32:10.996Z,1011.45
2018-10-20T01:33:10.984Z,1011.45
2018-10-20T01:34:11.078Z,1011.46
2018-10-20T01:35:10.968Z,1011.44
2018-10-20T01:36:10.954Z,1011.52
2018-10-20T01:37:11.090Z,1011.55
2018-10-20T01:38:10.932Z,1011.56
2018-10-20T01:39:10.921Z,1011.56
2018-10-20T01:40:10.990Z,1011.53
2018-10-20T01:41:10.900Z,1011.52
2018-10-20T01:42:10.889Z,1011.47
2018-10-20T01:43:10.941Z,1011.42
2018-10-20T01:44:10.870Z,1011.43
2018-10-20T01:45:10.915Z,1011.47
2018-10-20T01:46:11.150Z,1011.49
2018-10-20T01:47:10.836Z,1011.50
2018-10-20T01:48:10.827Z,1011.51
2018-10-20T01:49:10.864Z,1011.51
2018-10-20T01:50:10.806Z,1011.53
2018-10-20T01:51:10.794Z,1011.55
2018-10-20T01:52:10.789Z,1011.58
2018-10-20T01:53:10.772Z,1011.61
2018-10-20T01:54:10.762Z,1011.67
2018-10-20T01:55:10.757Z,1011.74
2018-10-20T01:56:10.741Z,1011.79
2018-10-20T01:57:10.730Z,1011.82
2018-10-20T01:58:10.776Z,1011.83
2018-10-20T01:59:10.708Z,1011.75
2018-10-20T02:00:10.698Z,1011.75
2018-10-20T02:01:10.706Z,1011.74
2018-10-20T02:02:10.677Z,1011.69
2018-10-20T02:03:10.666Z,1011.70
2018-10-20T02:04:10.715Z,1011.66
2018-10-20T02:05:10.646Z,1011.71
2018-10-20T02:06:10.634Z,1011.71
2018-10-20T02:07:10.685Z,1011.76
2018-10-20T02:08:10.612Z,1011.76
2018-10-20T02:09:10.602Z,1011.75
2018-10-20T02:10:10.662Z,1011.75
2018-10-20T02:11:10.584Z,1011.71
2018-10-20T02:12:10.570Z,1011.73
2018-10-20T02:13:10.637Z,1011.71
2018-10-20T02:14:10.549Z,1011.79
2018-10-20T02:15:10.541Z,1011.77
2018-10-20T02:16:10.593Z,1011.80
2018-10-20T02:17:10.521Z,1011.76
2018-10-20T02:18:10.506Z,1011.74
2018-10-20T02:19:10.551Z,1011.81
2018-10-20T02:20:10.485Z,1011.77
2018-10-20T02:21:10.474Z,1011.86
2018-10-20T02:22:10.501Z,1011.94
2018-10-20T02:23:10.453Z,1011.93
2018-10-20T02:24:10.445Z,1011.89
2018-10-20T02:25:10.596Z,1011.86
2018-10-20T02:26:10.421Z,1011.86
2018-10-20T02:27:10.411Z,1011.84
2018-10-20T02:28:10.482Z,1011.87
2018-10-20T02:29:10.390Z,1011.93
2018-10-20T02:30:10.386Z,1011.93
2018-10-20T02:31:10.424Z,1011.93
2018-10-20T02:32:10.362Z,1011.93
2018-10-20T02:33:10.350Z,1011.97
2018-10-20T02:34:10.411Z,1012.00
2018-10-20T02:35:10.327Z,1012.00
2018-10-20T02:36:10.317Z,1012.05
2018-10-20T02:37:10.337Z,1012.02
2018-10-20T02:38:10.297Z,1012.04
2018-10-20T02:39:10.295Z,1012.04
2018-10-20T02:40:10.336Z,1012.02
2018-10-20T02:41:10.265Z,1012.02
2018-10-20T02:42:10.255Z,1011.99
2018-10-20T02:43:10.314Z,1011.96
2018-10-20T02:44:10.236Z,1011.96
2018-10-20T02:45:10.224Z,1011.97
2018-10-20T02:46:10.347Z,1011.94
2018-10-20T02:47:10.204Z,1011.92
2018-10-20T02:48:10.196Z,1011.89
2018-10-20T02:49:10.187Z,1011.86
2018-10-20T02:50:10.172Z,1011.84
2018-10-20T02:51:10.163Z,1011.84
2018-10-20T02:52:10.227Z,1011.87
2018-10-20T02:53:10.144Z,1011.87
2018-10-20T02:54:10.131Z,1011.82
2018-10-20T02:55:10.156Z,1011.83
2018-10-20T02:56:10.111Z,1011.86
2018-10-20T02:57:10.100Z,1011.90
2018-10-20T02:58:10.175Z,1011.88
2018-10-20T02:59:10.081Z,1011.84
2018-10-20T03:00:10.070Z,1011.83
2018-10-20T03:01:10.134Z,1011.81
2018-10-20T03:02:10.049Z,1011.82
2018-10-20T03:03:10.043Z,1011.81
2018-10-20T03:04:10.177Z,1011.78
2018-10-20T03:05:10.017Z,1011.73
2018-10-20T03:06:10.006Z,1011.71
2018-10-20T03:07:10.009Z,1011.79
2018-10-20T03:08:09.988Z,1011.85
2018-10-20T03:09:09.975Z,1011.84
2018-10-20T03:10:10.061Z,1011.86
2018-10-20T03:11:09.955Z,1011.88
2018-10-20T03:12:09.949Z,1011.91
2018-10-20T03:13:10.001Z,1011.90
2018-10-20T03:14:09.925Z,1011.87
2018-10-20T03:15:09.911Z,1011.84
2018-10-20T03:16:09.979Z,1011.84
2018-10-20T03:17:09.891Z,1011.87
2018-10-20T03:18:09.880Z,1011.89
2018-10-20T03:19:09.985Z,1011.85
2018-10-20T03:20:09.861Z,1011.80
2018-10-20T03:21:09.849Z,1011.79
2018-10-20T03:22:09.925Z,1011.79
2018-10-20T03:23:09.829Z,1011.80
2018-10-20T03:24:09.819Z,1011.76
2018-10-20T03:25:09.882Z,1011.78
2018-10-20T03:26:09.797Z,1011.80
2018-10-20T03:27:09.786Z,1011.86
2018-10-20T03:28:09.877Z,1011.87
2018-10-20T03:29:09.768Z,1011.89
2018-10-20T03:30:09.755Z,1011.86
2018-10-20T03:31:09.967Z,1011.78
2018-10-20T03:32:09.736Z,1011.77
2018-10-20T03:33:09.723Z,1011.74
2018-10-20T03:34:09.766Z,1011.77
2018-10-20T03:35:09.711Z,1011.77
2018-10-20T03:36:09.692Z,1011.79
2018-10-20T03:37:09.720Z,1011.78
2018-10-20T03:38:09.671Z,1011.75
2018-10-20T03:39:09.660Z,1011.73
2018-10-20T03:40:09.738Z,1011.74
2018-10-20T03:41:09.640Z,1011.73
2018-10-20T03:42:09.631Z,1011.69
2018-10-20T03:43:09.668Z,1011.71
2018-10-20T03:44:09.620Z,1011.73
2018-10-20T03:45:09.596Z,1011.74
2018-10-20T03:46:09.632Z,1011.68
2018-10-20T03:47:09.575Z,1011.73
2018-10-20T03:48:09.564Z,1011.72
2018-10-20T03:49:09.694Z,1011.77
2018-10-20T03:50:09.541Z,1011.85
2018-10-20T03:51:09.531Z,1011.83
2018-10-20T03:52:09.560Z,1011.85
2018-10-20T03:53:09.508Z,1011.87
2018-10-20T03:54:09.499Z,1011.90
2018-10-20T03:55:09.572Z,1011.87
2018-10-20T03:56:09.497Z,1011.86
2018-10-20T03:57:09.470Z,1011.86
2018-10-20T03:58:09.470Z,1011.85
2018-10-20T03:59:09.445Z,1011.85
2018-10-20T04:00:09.435Z,1011.89
2018-10-20T04:01:09.492Z,1011.85
2018-10-20T04:02:09.417Z,1011.86
2018-10-20T04:03:09.401Z,1011.91
2018-10-20T04:04:09.476Z,1011.93
2018-10-20T04:05:09.380Z,1011.98
2018-10-20T04:06:09.368Z,1012.02
2018-10-20T04:07:09.402Z,1012.01
2018-10-20T04:08:09.347Z,1012.04
2018-10-20T04:09:09.336Z,1012.04
2018-10-20T04:10:09.474Z,1012.05
2018-10-20T04:11:09.315Z,1012.05
2018-10-20T04:12:09.304Z,1012.03
2018-10-20T04:13:09.375Z,1012.08
2018-10-20T04:14:09.285Z,1012.09
2018-10-20T04:15:09.270Z,1012.11
2018-10-20T04:16:09.440Z,1012.18
2018-10-20T04:17:09.249Z,1012.23
2018-10-20T04:18:09.488Z,1012.25
2018-10-20T04:19:09.263Z,1012.27
2018-10-20T04:20:09.216Z,1012.24
2018-10-20T04:21:09.204Z,1012.28
2018-10-20T04:22:09.250Z,1012.23
2018-10-20T04:23:09.183Z,1012.22
2018-10-20T04:24:09.175Z,1012.25
2018-10-20T04:25:09.194Z,1012.27
2018-10-20T04:26:09.153Z,1012.35
2018-10-20T04:27:09.139Z,1012.38
2018-10-20T04:28:09.185Z,1012.39
2018-10-20T04:29:09.116Z,1012.47
2018-10-20T04:30:09.106Z,1012.50
2018-10-20T04:31:09.191Z,1012.57
2018-10-20T04:32:09.084Z,1012.59
2018-10-20T04:33:09.086Z,1012.62
2018-10-20T04:34:09.105Z,1012.61
2018-10-20T04:35:09.049Z,1012.65
2018-10-20T04:36:09.039Z,1012.63
2018-10-20T04:37:09.147Z,1012.64
2018-10-20T04:38:09.016Z,1012.65
2018-10-20T04:39:09.006Z,1012.71
2018-10-20T04:40:09.056Z,1012.74
2018-10-20T04:41:08.983Z,1012.75
2018-10-20T04:42:08.972Z,1012.76
2018-10-20T04:43:09.058Z,1012.75
2018-10-20T04:44:08.950Z,1012.76
2018-10-20T04:45:08.939Z,1012.76
2018-10-20T04:46:08.988Z,1012.76
2018-10-20T04:47:08.917Z,1012.77
2018-10-20T04:48:08.905Z,1012.77
2018-10-20T04:49:08.999Z,1012.76
2018-10-20T04:50:08.884Z,1012.74
2018-10-20T04:51:08.873Z,1012.78
2018-10-20T04:52:08.891Z,1012.77
2018-10-20T04:53:08.855Z,1012.79
2018-10-20T04:54:08.841Z,1012.81
2018-10-20T04:55:08.912Z,1012.84
2018-10-20T04:56:08.820Z,1012.82
2018-10-20T04:57:08.806Z,1012.75
2018-10-20T04:58:08.896Z,1012.75
2018-10-20T04:59:08.785Z,1012.71
2018-10-20T05:00:08.774Z,1012.68
2018-10-20T05:01:08.792Z,1012.74
2018-10-20T05:02:08.752Z,1012.79
2018-10-20T05:03:08.740Z,1012.81
2018-10-20T05:04:08.936Z,1012.88
2018-10-20T05:05:08.717Z,1012.94
2018-10-20T05:06:08.706Z,1012.92
2018-10-20T05:07:08.760Z,1012.91
2018-10-20T05:08:08.683Z,1012.96
2018-10-20T05:09:08.676Z,1013.00
2018-10-20T05:10:08.735Z,1013.04
2018-10-20T05:11:08.650Z,1013.05
2018-10-20T05:12:08.639Z,1013.12
2018-10-20T05:13:08.675Z,1013.19
2018-10-20T05:14:08.616Z,1013.23
2018-10-20T05:15:08.606Z,1013.23
2018-10-20T05:16:08.620Z,1013.20
2018-10-20T05:17:08.583Z,1013.23
2018-10-20T05:18:08.572Z,1013.21
2018-10-20T05:19:08.634Z,1013.21
2018-10-20T05:20:08.551Z,1013.21
2018-10-20T05:21:08.538Z,1013.12
2018-10-20T05:22:08.607Z,1013.05
2018-10-20T05:23:08.516Z,1013.09
2018-10-20T05:24:08.510Z,1013.06
2018-10-20T05:25:08.563Z,1012.98
2018-10-20T05:26:08.483Z,1012.99
2018-10-20T05:27:08.471Z,1013.01
2018-10-20T05:28:08.493Z,1013.05
2018-10-20T05:29:08.447Z,1013.05
2018-10-20T05:30:08.437Z,1013.06
2018-10-20T05:31:08.458Z,1013.07
2018-10-20T05:32:08.415Z,1013.07
2018-10-20T05:33:08.404Z,1013.07
2018-10-20T05:34:08.403Z,1013.10
2018-10-20T05:35:08.380Z,1013.11
2018-10-20T05:36:08.370Z,1013.15
2018-10-20T05:37:08.389Z,1013.13
2018-10-20T05:38:08.349Z,1013.08
2018-10-20T05:39:08.336Z,1013.07
2018-10-20T05:40:08.391Z,1013.08
2018-10-20T05:41:08.313Z,1013.05
2018-10-20T05:42:08.301Z,1013.06
2018-10-20T05:43:08.583Z,1013.06
2018-10-20T05:44:08.281Z,1013.06
2018-10-20T05:45:08.268Z,1013.02
2018-10-20T05:46:08.302Z,1013.04
2018-10-20T05:47:08.253Z,1012.99
2018-10-20T05:48:08.234Z,1013.01
2018-10-20T05:49:08.226Z,1013.05
2018-10-20T05:50:08.211Z,1013.08
2018-10-20T05:51:08.200Z,1013.14
2018-10-20T05:52:08.274Z,1013.15
2018-10-20T05:53:08.413Z,1013.17
2018-10-20T05:54:08.170Z,1013.19
2018-10-20T05:55:08.206Z,1013.19
2018-10-20T05:56:08.142Z,1013.18
2018-10-20T05:57:08.132Z,1013.20
2018-10-20T05:58:08.187Z,1013.12
2018-10-20T05:59:08.108Z,1013.08
2018-10-20T06:00:08.106Z,1013.10
2018-10-20T06:01:08.124Z,1013.11
2018-10-20T06:02:08.075Z,1013.11
2018-10-20T06:03:08.067Z,1013.14
2018-10-20T06:04:08.098Z,1013.13
2018-10-20T06:05:08.043Z,1013.17
2018-10-20T06:06:08.032Z,1013.17
2018-10-20T06:07:08.041Z,1013.22
2018-10-20T06:08:08.007Z,1013.24
2018-10-20T06:09:07.999Z,1013.26
2018-10-20T06:10:08.009Z,1013.26
2018-10-20T06:11:07.973Z,1013.28
2018-10-20T06:12:07.964Z,1013.33
2018-10-20T06:13:08.050Z,1013.34
2018-10-20T06:14:07.937Z,1013.40
2018-10-20T06:15:07.927Z,1013.39
2018-10-20T06:16:07.933Z,1013.42
2018-10-20T06:17:07.902Z,1013.43
2018-10-20T06:18:07.892Z,1013.44
2018-10-20T06:19:07.910Z,1013.45
2018-10-20T06:20:07.869Z,1013.48
2018-10-20T06:21:07.858Z,1013.45
2018-10-20T06:22:07.955Z,1013.50
2018-10-20T06:23:07.834Z,1013.49
2018-10-20T06:24:07.823Z,1013.46
2018-10-20T06:25:08.076Z,1013.45
2018-10-20T06:26:07.803Z,1013.48
2018-10-20T06:27:07.796Z,1013.49
2018-10-20T06:28:07.830Z,1013.46
2018-10-20T06:29:07.766Z,1013.41
2018-10-20T06:30:07.754Z,1013.41
2018-10-20T06:31:07.818Z,1013.39
2018-10-20T06:32:07.819Z,1013.42
2018-10-20T06:33:07.725Z,1013.45
2018-10-20T06:34:07.767Z,1013.47
2018-10-20T06:35:07.705Z,1013.53
2018-10-20T06:36:07.687Z,1013.57
2018-10-20T06:37:07.692Z,1013.60
2018-10-20T06:38:07.665Z,1013.62
2018-10-20T06:39:07.654Z,1013.63
2018-10-20T06:40:07.695Z,1013.64
2018-10-20T06:41:07.632Z,1013.67
2018-10-20T06:42:07.620Z,1013.68
2018-10-20T06:43:07.629Z,1013.69
2018-10-20T06:44:07.607Z,1013.75
2018-10-20T06:45:07.595Z,1013.78
2018-10-20T06:46:07.637Z,1013.82
2018-10-20T06:47:07.585Z,1013.86
2018-10-20T06:48:07.653Z,1013.92
2018-10-20T06:49:07.601Z,1013.93
2018-10-20T06:50:07.536Z,1013.95
2018-10-20T06:51:07.522Z,1013.94
2018-10-20T06:52:07.513Z,1013.91
2018-10-20T06:53:07.500Z,1013.91
2018-10-20T06:54:07.490Z,1013.91
2018-10-20T06:55:07.493Z,1013.90
2018-10-20T06:56:07.671Z,1013.92
2018-10-20T06:57:07.504Z,1013.97
2018-10-20T06:58:07.500Z,1014.01
2018-10-20T06:59:07.494Z,1013.96
2018-10-20T07:00:07.525Z,1013.99
2018-10-20T07:01:07.535Z,1013.99
2018-10-20T07:02:07.405Z,1014.02
2018-10-20T07:03:07.417Z,1014.07
2018-10-20T07:04:07.434Z,1014.08
2018-10-20T07:05:07.373Z,1014.10
2018-10-20T07:06:07.362Z,1014.04
2018-10-20T07:07:07.422Z,1014.05
2018-10-20T07:08:07.345Z,1014.08
2018-10-20T07:09:07.346Z,1014.08
2018-10-20T07:10:07.401Z,1014.09
2018-10-20T07:11:07.310Z,1014.05
2018-10-20T07:12:07.300Z,1014.05
2018-10-20T07:13:07.575Z,1014.08
2018-10-20T07:14:07.286Z,1014.07
2018-10-20T07:15:07.294Z,1014.08
2018-10-20T07:16:07.376Z,1014.11
2018-10-20T07:17:07.453Z,1014.13
2018-10-20T07:18:07.242Z,1014.14
2018-10-20T07:19:07.338Z,1014.17
2018-10-20T07:20:07.231Z,1014.18
2018-10-20T07:21:07.280Z,1014.17
2018-10-20T07:22:07.200Z,1014.18
2018-10-20T07:23:07.189Z,1014.13
2018-10-20T07:24:07.179Z,1014.12
2018-10-20T07:25:07.186Z,1014.13
2018-10-20T07:26:07.159Z,1014.14
2018-10-20T07:27:07.213Z,1014.17
2018-10-20T07:28:07.139Z,1014.11
2018-10-20T07:29:07.128Z,1014.13
2018-10-20T07:30:07.120Z,1014.09
2018-10-20T07:31:07.210Z,1014.12
2018-10-20T07:32:07.154Z,1014.12
2018-10-20T07:33:07.334Z,1014.12
2018-10-20T07:34:07.082Z,1014.09
2018-10-20T07:35:07.072Z,1014.14
2018-10-20T07:36:07.067Z,1014.17
2018-10-20T07:37:07.150Z,1014.24
2018-10-20T07:38:07.047Z,1014.24
2018-10-20T07:39:07.122Z,1014.28
2018-10-20T07:40:07.029Z,1014.32
2018-10-20T07:41:07.020Z,1014.34
2018-10-20T07:42:07.014Z,1014.38
2018-10-20T07:43:07.043Z,1014.44
2018-10-20T07:44:06.995Z,1014.45
2018-10-20T07:45:07.031Z,1014.48
2018-10-20T07:46:06.979Z,1014.48
2018-10-20T07:47:06.969Z,1014.48
2018-10-20T07:48:06.961Z,1014.52
2018-10-20T07:49:07.056Z,1014.59
2018-10-20T07:50:06.944Z,1014.57
2018-10-20T07:51:06.972Z,1014.60
2018-10-20T07:52:06.928Z,1014.62
2018-10-20T07:53:06.920Z,1014.63
2018-10-20T07:54:06.911Z,1014.67
2018-10-20T07:55:06.952Z,1014.72
2018-10-20T07:56:06.898Z,1014.70
2018-10-20T07:57:06.934Z,1014.72
2018-10-20T07:58:06.885Z,1014.79
2018-10-20T07:59:06.873Z,1014.77
2018-10-20T08:00:06.869Z,1014.81
2018-10-20T08:01:06.927Z,1014.81
2018-10-20T08:02:06.849Z,1014.83
2018-10-20T08:03:06.886Z,1014.83
2018-10-20T08:04:06.836Z,1014.87
2018-10-20T08:05:06.828Z,1014.88
2018-10-20T08:06:06.819Z,1014.90
2018-10-20T08:07:06.828Z,1014.93
2018-10-20T08:08:06.805Z,1014.93
2018-10-20T08:09:06.951Z,1014.92
2018-10-20T08:10:06.791Z,1014.98
2018-10-20T08:11:06.788Z,1015.02
2018-10-20T08:12:06.779Z,1015.00
2018-10-20T08:13:06.770Z,1015.07
2018-10-20T08:14:06.765Z,1015.08
2018-10-20T08:15:06.825Z,1015.11
2018-10-20T08:16:06.752Z,1015.12
2018-10-20T08:17:06.744Z,1015.08
2018-10-20T08:18:06.749Z,1015.10
2018-10-20T08:19:06.733Z,1015.10
2018-10-20T08:20:06.726Z,1015.10
2018-10-20T08:21:06.730Z,1015.07
2018-10-20T08:22:06.714Z,1015.09
2018-10-20T08:23:06.709Z,1015.12
2018-10-20T08:24:06.736Z,1015.06
2018-10-20T08:25:06.701Z,1015.08
2018-10-20T08:26:06.692Z,1015.05
2018-10-20T08:27:06.695Z,1015.04
2018-10-20T08:28:06.687Z,1015.07
2018-10-20T08:29:06.678Z,1015.11
2018-10-20T08:30:06.689Z,1015.10
2018-10-20T08:31:06.675Z,1015.12
2018-10-20T08:32:06.672Z,1015.15
2018-10-20T08:33:06.699Z,1015.19
2018-10-20T08:34:06.654Z,1015.16
2018-10-20T08:35:06.651Z,1015.17
2018-10-20T08:36:06.656Z,1015.20
2018-10-20T08:37:06.645Z,1015.17
2018-10-20T08:38:06.837Z,1015.21
2018-10-20T08:39:06.720Z,1015.22
2018-10-20T08:40:06.629Z,1015.29
2018-10-20T08:41:06.626Z,1015.24
2018-10-20T08:42:06.897Z,1015.26
2018-10-20T08:43:06.617Z,1015.29
2018-10-20T08:44:06.615Z,1015.24
2018-10-20T08:45:06.668Z,1015.24
2018-10-20T08:46:06.607Z,1015.22
2018-10-20T08:47:06.604Z,1015.24
2018-10-20T08:48:06.635Z,1015.24
2018-10-20T08:49:06.598Z,1015.30
2018-10-20T08:50:06.595Z,1015.33
2018-10-20T08:51:06.707Z,1015.33
2018-10-20T08:52:06.590Z,1015.36
2018-10-20T08:53:06.585Z,1015.37
2018-10-20T08:54:06.663Z,1015.34
2018-10-20T08:55:06.583Z,1015.37
2018-10-20T08:56:06.576Z,1015.33
2018-10-20T08:57:06.676Z,1015.32
2018-10-20T08:58:06.573Z,1015.34
2018-10-20T08:59:06.565Z,1015.34
2018-10-20T09:00:06.613Z,1015.32
2018-10-20T09:01:06.556Z,1015.33
2018-10-20T09:02:06.552Z,1015.35
2018-10-20T09:03:06.614Z,1015.40
2018-10-20T09:04:06.546Z,1015.40
2018-10-20T09:05:06.541Z,1015.46
2018-10-20T09:06:06.811Z,1015.46
2018-10-20T09:07:06.532Z,1015.44
2018-10-20T09:08:06.529Z,1015.40
2018-10-20T09:09:06.577Z,1015.35
2018-10-20T09:10:06.524Z,1015.33
2018-10-20T09:11:06.718Z,1015.34
2018-10-20T09:12:06.595Z,1015.36
2018-10-20T09:13:06.512Z,1015.39
2018-10-20T09:14:06.507Z,1015.35
2018-10-20T09:15:06.725Z,1015.33
2018-10-20T09:16:06.503Z,1015.32
2018-10-20T09:17:06.503Z,1015.33
2018-10-20T09:18:06.554Z,1015.34
2018-10-20T09:19:06.493Z,1015.31
2018-10-20T09:20:06.692Z,1015.35
2018-10-20T09:21:06.563Z,1015.32
2018-10-20T09:22:06.480Z,1015.33
2018-10-20T09:23:06.479Z,1015.31
2018-10-20T09:24:06.521Z,1015.36
2018-10-20T09:25:06.490Z,1015.39
2018-10-20T09:26:06.469Z,1015.35
2018-10-20T09:27:06.506Z,1015.40
2018-10-20T09:28:06.666Z,1015.42
2018-10-20T09:29:06.466Z,1015.40
2018-10-20T09:30:06.466Z,1015.44
2018-10-20T09:31:06.463Z,1015.42
2018-10-20T09:32:06.460Z,1015.41
2018-10-20T09:33:06.484Z,1015.41
2018-10-20T09:34:06.454Z,1015.40
2018-10-20T09:35:06.450Z,1015.47
2018-10-20T09:36:06.487Z,1015.48
2018-10-20T09:37:06.449Z,1015.47
2018-10-20T09:38:06.451Z,1015.48
2018-10-20T09:39:06.476Z,1015.50
2018-10-20T09:40:06.451Z,1015.50
2018-10-20T09:41:06.450Z,1015.55
2018-10-20T09:42:06.465Z,1015.57
2018-10-20T09:43:06.452Z,1015.66
2018-10-20T09:44:06.511Z,1015.69
2018-10-20T09:45:06.492Z,1015.72
2018-10-20T09:46:06.457Z,1015.76
2018-10-20T09:47:06.464Z,1015.79
2018-10-20T09:48:06.474Z,1015.76
2018-10-20T09:49:06.467Z,1015.71
2018-10-20T09:50:06.468Z,1015.69
2018-10-20T09:51:06.469Z,1015.68
2018-10-20T09:52:06.478Z,1015.69
2018-10-20T09:53:06.478Z,1015.69
2018-10-20T09:54:06.538Z,1015.69
2018-10-20T09:55:06.484Z,1015.65
2018-10-20T09:56:06.575Z,1015.67
2018-10-20T09:57:06.489Z,1015.66
2018-10-20T09:58:06.520Z,1015.65
2018-10-20T09:59:06.501Z,1015.66
2018-10-20T10:00:06.802Z,1015.61
2018-10-20T10:01:06.652Z,1015.58
2018-10-20T10:02:06.595Z,1015.56
2018-10-20T10:03:06.664Z,1015.57
2018-10-20T10:04:06.520Z,1015.50
2018-10-20T10:05:06.521Z,1015.50
2018-10-20T10:06:06.624Z,1015.50
2018-10-20T10:07:06.525Z,1015.51
2018-10-20T10:08:06.587Z,1015.53
2018-10-20T10:09:06.614Z,1015.52
2018-10-20T10:10:06.594Z,1015.51
2018-10-20T10:11:06.541Z,1015.54
2018-10-20T10:12:06.618Z,1015.51
2018-10-20T10:13:06.552Z,1015.51
2018-10-20T10:14:06.637Z,1015.49
2018-10-20T10:15:06.560Z,1015.51
2018-10-20T10:16:06.565Z,1015.53
2018-10-20T10:17:06.564Z,1015.53
2018-10-20T10:18:06.630Z,1015.53
2018-10-20T10:19:06.783Z,1015.58
2018-10-20T10:20:06.808Z,1015.58
2018-10-20T10:21:06.578Z,1015.58
2018-10-20T10:22:06.587Z,1015.54
2018-10-20T10:23:06.588Z,1015.58
2018-10-20T10:24:06.640Z,1015.54
2018-10-20T10:25:06.622Z,1015.51
2018-10-20T10:26:06.639Z,1015.52
2018-10-20T10:27:06.605Z,1015.49
2018-10-20T10:28:06.607Z,1015.49
2018-10-20T10:29:06.611Z,1015.43
2018-10-20T10:30:06.652Z,1015.44
2018-10-20T10:31:06.702Z,1015.38
2018-10-20T10:32:06.633Z,1015.43
2018-10-20T10:33:06.627Z,1015.40
2018-10-20T10:34:06.631Z,1015.37
2018-10-20T10:35:06.637Z,1015.35
2018-10-20T10:36:06.697Z,1015.34
2018-10-20T10:37:06.732Z,1015.33
2018-10-20T10:38:06.652Z,1015.26
2018-10-20T10:39:06.648Z,1015.30
2018-10-20T10:40:06.654Z,1015.32
2018-10-20T10:41:06.653Z,1015.30
2018-10-20T10:42:06.727Z,1015.24
2018-10-20T10:43:06.723Z,1015.20
2018-10-20T10:44:06.663Z,1015.21
2018-10-20T10:45:06.665Z,1015.24
2018-10-20T10:46:06.667Z,1015.22
2018-10-20T10:47:06.670Z,1015.25
2018-10-20T10:48:06.729Z,1015.20
2018-10-20T10:49:06.771Z,1015.21
2018-10-20T10:50:06.681Z,1015.22
2018-10-20T10:51:06.686Z,1015.20
2018-10-20T10:52:06.689Z,1015.19
2018-10-20T10:53:06.694Z,1015.24
2018-10-20T10:54:06.744Z,1015.21
2018-10-20T10:55:06.700Z,1015.22
2018-10-20T10:56:06.703Z,1015.24
2018-10-20T10:57:06.707Z,1015.20
2018-10-20T10:58:06.710Z,1015.20
2018-10-20T10:59:06.914Z,1015.20
2018-10-20T11:00:06.733Z,1015.19
2018-10-20T11:01:06.723Z,1015.22
2018-10-20T11:02:06.724Z,1015.20
2018-10-20T11:03:06.723Z,1015.22
2018-10-20T11:04:06.730Z,1015.20
2018-10-20T11:05:06.730Z,1015.20
2018-10-20T11:06:06.764Z,1015.22
2018-10-20T11:07:06.739Z,1015.16
2018-10-20T11:08:06.738Z,1015.14
2018-10-20T11:09:06.740Z,1015.11
2018-10-20T11:10:06.742Z,1015.12
2018-10-20T11:11:06.747Z,1015.14
2018-10-20T11:12:06.816Z,1015.12
2018-10-20T11:13:06.749Z,1015.12
2018-10-20T11:14:06.752Z,1015.12
2018-10-20T11:15:06.754Z,1015.13
2018-10-20T11:16:06.759Z,1015.08
2018-10-20T11:17:06.758Z,1015.11
2018-10-20T11:18:07.025Z,1015.14
2018-10-20T11:19:06.761Z,1015.17
2018-10-20T11:20:06.765Z,1015.18
2018-10-20T11:21:06.764Z,1015.21
2018-10-20T11:22:06.766Z,1015.21
2018-10-20T11:23:06.848Z,1015.29
2018-10-20T11:24:06.822Z,1015.23
2018-10-20T11:25:06.771Z,1015.23
2018-10-20T11:26:06.774Z,1015.20
2018-10-20T11:27:06.776Z,1015.18
2018-10-20T11:28:06.780Z,1015.18
2018-10-20T11:29:06.776Z,1015.21
2018-10-20T11:30:06.826Z,1015.14
2018-10-20T11:31:06.779Z,1015.15
2018-10-20T11:32:06.782Z,1015.14
2018-10-20T11:33:06.782Z,1015.07
2018-10-20T11:34:06.785Z,1015.09
2018-10-20T11:35:06.788Z,1015.07
2018-10-20T11:36:06.858Z,1015.08
2018-10-20T11:37:06.784Z,1015.11
2018-10-20T11:38:06.785Z,1015.16
2018-10-20T11:39:06.785Z,1015.20
2018-10-20T11:40:06.787Z,1015.27
2018-10-20T11:41:06.793Z,1015.28
2018-10-20T11:42:06.813Z,1015.22
2018-10-20T11:43:06.788Z,1015.22
2018-10-20T11:44:06.791Z,1015.14
2018-10-20T11:45:06.788Z,1015.12
2018-10-20T11:46:06.788Z,1015.11
2018-10-20T11:47:06.792Z,1015.13
2018-10-20T11:48:06.812Z,1015.15
2018-10-20T11:49:06.788Z,1015.15
2018-10-20T11:50:06.791Z,1015.17
2018-10-20T11:51:06.789Z,1015.15
2018-10-20T11:52:06.789Z,1015.14
2018-10-20T11:53:06.787Z,1015.13
2018-10-20T11:54:06.825Z,1015.08
2018-10-20T11:55:06.791Z,1015.08
2018-10-20T11:56:06.787Z,1015.02
2018-10-20T11:57:06.787Z,1015.02
2018-10-20T11:58:06.786Z,1015.01
2018-10-20T11:59:06.787Z,1015.05
2018-10-20T12:00:06.838Z,1015.04
2018-10-20T12:01:06.785Z,1015.04
2018-10-20T12:02:06.785Z,1015.01
2018-10-20T12:03:06.787Z,1015.01
2018-10-20T12:04:06.785Z,1015.02
2018-10-20T12:05:06.816Z,1015.00